sensor_id;sensor_type;location;lat;lon;timestamp;temperature;humidity
11423;DHT22;5768;51.476;7.210;2024-02-04T00:04:02;10.90;99.90
11423;DHT22;5768;51.476;7.210;2024-02-04T00:09:04;10.90;99.90
11423;DHT22;5768;51.476;7.210;2024-02-04T00:14:07;10.60;99.90
11423;DHT22;5768;51.476;7.210;2024-02-04T00:19:11;10.80;1.40
11423;DHT22;5768;51.476;7.210;2024-02-04T00:24:13;10.90;1.40
11423;DHT22;5768;51.476;7.210;2024-02-04T00:29:15;10.70;1.40
11423;DHT22;5768;51.476;7.210;2024-02-04T00:34:18;10.60;1.40
11423;DHT22;5768;51.476;7.210;2024-02-04T00:39:21;10.50;1.40
11423;DHT22;5768;51.476;7.210;2024-02-04T00:44:23;10.40;1.40
11423;DHT22;5768;51.476;7.210;2024-02-04T00:49:26;10.40;99.90
11423;DHT22;5768;51.476;7.210;2024-02-04T00:54:29;10.40;1.40
11423;DHT22;5768;51.476;7.210;2024-02-04T00:59:31;10.40;99.90
11423;DHT22;5768;51.476;7.210;2024-02-04T01:04:34;10.40;99.90
11423;DHT22;5768;51.476;7.210;2024-02-04T01:09:36;10.30;1.40
11423;DHT22;5768;51.476;7.210;2024-02-04T01:14:39;10.30;1.40
11423;DHT22;5768;51.476;7.210;2024-02-04T01:19:43;10.40;1.40
11423;DHT22;5768;51.476;7.210;2024-02-04T01:24:45;10.40;1.40
11423;DHT22;5768;51.476;7.210;2024-02-04T01:29:49;10.40;1.40
11423;DHT22;5768;51.476;7.210;2024-02-04T01:34:52;10.40;1.40
11423;DHT22;5768;51.476;7.210;2024-02-04T01:39:55;10.30;1.40
11423;DHT22;5768;51.476;7.210;2024-02-04T01:44:57;10.40;1.40
11423;DHT22;5768;51.476;7.210;2024-02-04T01:50:01;10.50;1.40
11423;DHT22;5768;51.476;7.210;2024-02-04T01:55:07;10.20;1.40
11423;DHT22;5768;51.476;7.210;2024-02-04T02:00:11;10.30;1.40
11423;DHT22;5768;51.476;7.210;2024-02-04T02:05:16;10.40;1.40
11423;DHT22;5768;51.476;7.210;2024-02-04T02:10:18;10.40;1.40
11423;DHT22;5768;51.476;7.210;2024-02-04T02:15:24;10.40;1.40
11423;DHT22;5768;51.476;7.210;2024-02-04T02:20:36;10.40;1.40
11423;DHT22;5768;51.476;7.210;2024-02-04T02:25:49;10.40;1.40
11423;DHT22;5768;51.476;7.210;2024-02-04T02:30:53;10.60;1.40
11423;DHT22;5768;51.476;7.210;2024-02-04T02:35:57;10.50;1.40
11423;DHT22;5768;51.476;7.210;2024-02-04T02:41:08;10.50;1.40
11423;DHT22;5768;51.476;7.210;2024-02-04T02:46:12;10.50;1.40
11423;DHT22;5768;51.476;7.210;2024-02-04T02:51:16;10.50;1.40
11423;DHT22;5768;51.476;7.210;2024-02-04T02:56:20;10.60;1.40
11423;DHT22;5768;51.476;7.210;2024-02-04T03:01:22;10.70;1.40
11423;DHT22;5768;51.476;7.210;2024-02-04T03:06:25;10.70;1.40
11423;DHT22;5768;51.476;7.210;2024-02-04T03:11:28;10.60;1.40
11423;DHT22;5768;51.476;7.210;2024-02-04T03:16:31;10.80;1.40
11423;DHT22;5768;51.476;7.210;2024-02-04T03:21:33;10.90;1.40
11423;DHT22;5768;51.476;7.210;2024-02-04T03:26:36;10.90;1.40
11423;DHT22;5768;51.476;7.210;2024-02-04T03:31:39;10.70;1.40
11423;DHT22;5768;51.476;7.210;2024-02-04T03:36:41;10.90;1.40
11423;DHT22;5768;51.476;7.210;2024-02-04T03:41:45;10.90;1.40
11423;DHT22;5768;51.476;7.210;2024-02-04T03:46:48;11.20;1.40
11423;DHT22;5768;51.476;7.210;2024-02-04T03:51:50;11.00;1.40
11423;DHT22;5768;51.476;7.210;2024-02-04T03:56:54;10.90;1.40
11423;DHT22;5768;51.476;7.210;2024-02-04T04:01:56;11.30;1.40
11423;DHT22;5768;51.476;7.210;2024-02-04T04:06:59;11.30;1.40
11423;DHT22;5768;51.476;7.210;2024-02-04T04:12:03;11.00;1.40
11423;DHT22;5768;51.476;7.210;2024-02-04T04:17:05;11.00;1.40
11423;DHT22;5768;51.476;7.210;2024-02-04T04:22:08;11.00;1.40
11423;DHT22;5768;51.476;7.210;2024-02-04T04:27:15;11.10;1.40
11423;DHT22;5768;51.476;7.210;2024-02-04T04:32:17;11.10;1.40
11423;DHT22;5768;51.476;7.210;2024-02-04T04:37:21;11.10;1.40
11423;DHT22;5768;51.476;7.210;2024-02-04T04:42:25;11.00;1.40
11423;DHT22;5768;51.476;7.210;2024-02-04T04:47:27;11.00;1.40
11423;DHT22;5768;51.476;7.210;2024-02-04T04:52:30;11.10;1.40
11423;DHT22;5768;51.476;7.210;2024-02-04T04:57:33;10.80;1.40
11423;DHT22;5768;51.476;7.210;2024-02-04T05:02:35;11.00;1.40
11423;DHT22;5768;51.476;7.210;2024-02-04T05:07:37;11.00;1.40
11423;DHT22;5768;51.476;7.210;2024-02-04T05:12:41;11.00;1.40
11423;DHT22;5768;51.476;7.210;2024-02-04T05:17:43;11.00;1.40
11423;DHT22;5768;51.476;7.210;2024-02-04T05:22:46;11.00;1.40
11423;DHT22;5768;51.476;7.210;2024-02-04T05:27:49;11.20;1.40
11423;DHT22;5768;51.476;7.210;2024-02-04T05:32:52;10.90;1.40
11423;DHT22;5768;51.476;7.210;2024-02-04T05:37:54;11.00;1.40
11423;DHT22;5768;51.476;7.210;2024-02-04T05:42:58;11.10;1.40
11423;DHT22;5768;51.476;7.210;2024-02-04T05:48:00;11.20;1.40
11423;DHT22;5768;51.476;7.210;2024-02-04T05:53:02;10.90;99.90
11423;DHT22;5768;51.476;7.210;2024-02-04T05:58:06;11.00;99.90
11423;DHT22;5768;51.476;7.210;2024-02-04T06:03:08;10.90;99.90
11423;DHT22;5768;51.476;7.210;2024-02-04T06:08:11;11.20;99.90
11423;DHT22;5768;51.476;7.210;2024-02-04T06:13:14;11.10;99.90
11423;DHT22;5768;51.476;7.210;2024-02-04T06:18:17;11.10;99.90
11423;DHT22;5768;51.476;7.210;2024-02-04T06:23:19;11.30;1.40
11423;DHT22;5768;51.476;7.210;2024-02-04T06:28:23;11.10;99.90
11423;DHT22;5768;51.476;7.210;2024-02-04T06:33:25;11.20;99.90
11423;DHT22;5768;51.476;7.210;2024-02-04T06:38:27;11.00;99.90
11423;DHT22;5768;51.476;7.210;2024-02-04T06:43:31;10.90;1.40
11423;DHT22;5768;51.476;7.210;2024-02-04T06:48:33;10.90;1.40
11423;DHT22;5768;51.476;7.210;2024-02-04T06:53:35;10.80;99.90
11423;DHT22;5768;51.476;7.210;2024-02-04T06:58:39;10.80;1.40
11423;DHT22;5768;51.476;7.210;2024-02-04T07:03:41;10.80;1.40
11423;DHT22;5768;51.476;7.210;2024-02-04T07:08:43;10.70;1.40
11423;DHT22;5768;51.476;7.210;2024-02-04T07:13:47;10.70;1.40
11423;DHT22;5768;51.476;7.210;2024-02-04T07:18:49;10.70;99.90
11423;DHT22;5768;51.476;7.210;2024-02-04T07:23:51;10.80;1.40
11423;DHT22;5768;51.476;7.210;2024-02-04T07:28:55;10.80;1.40
11423;DHT22;5768;51.476;7.210;2024-02-04T07:33:57;10.80;1.40
11423;DHT22;5768;51.476;7.210;2024-02-04T07:38:59;10.80;1.40
11423;DHT22;5768;51.476;7.210;2024-02-04T07:44:05;11.00;1.40
11423;DHT22;5768;51.476;7.210;2024-02-04T07:49:08;11.00;99.90
11423;DHT22;5768;51.476;7.210;2024-02-04T07:54:10;10.90;99.90
11423;DHT22;5768;51.476;7.210;2024-02-04T07:59:13;11.10;1.40
11423;DHT22;5768;51.476;7.210;2024-02-04T08:04:16;10.80;99.90
11423;DHT22;5768;51.476;7.210;2024-02-04T08:09:18;11.00;99.90
11423;DHT22;5768;51.476;7.210;2024-02-04T08:14:22;11.00;99.90
11423;DHT22;5768;51.476;7.210;2024-02-04T08:19:25;11.00;1.40
11423;DHT22;5768;51.476;7.210;2024-02-04T08:24:27;10.90;1.40
11423;DHT22;5768;51.476;7.210;2024-02-04T08:29:31;11.00;99.90
11423;DHT22;5768;51.476;7.210;2024-02-04T08:34:33;11.10;99.90
11423;DHT22;5768;51.476;7.210;2024-02-04T08:39:36;11.20;99.90
11423;DHT22;5768;51.476;7.210;2024-02-04T08:44:39;11.00;99.90
11423;DHT22;5768;51.476;7.210;2024-02-04T08:49:43;11.00;99.90
11423;DHT22;5768;51.476;7.210;2024-02-04T08:54:46;11.10;99.90
11423;DHT22;5768;51.476;7.210;2024-02-04T08:59:49;11.10;99.90
11423;DHT22;5768;51.476;7.210;2024-02-04T09:04:52;11.00;99.90
11423;DHT22;5768;51.476;7.210;2024-02-04T09:09:54;11.40;99.90
11423;DHT22;5768;51.476;7.210;2024-02-04T09:14:58;11.40;99.90
11423;DHT22;5768;51.476;7.210;2024-02-04T09:20:00;11.20;99.90
11423;DHT22;5768;51.476;7.210;2024-02-04T09:25:03;11.00;99.90
11423;DHT22;5768;51.476;7.210;2024-02-04T09:30:09;11.30;99.90
11423;DHT22;5768;51.476;7.210;2024-02-04T09:35:13;11.30;99.90
11423;DHT22;5768;51.476;7.210;2024-02-04T09:40:15;11.30;99.90
11423;DHT22;5768;51.476;7.210;2024-02-04T09:45:22;11.10;99.90
11423;DHT22;5768;51.476;7.210;2024-02-04T09:50:24;11.30;99.90
11423;DHT22;5768;51.476;7.210;2024-02-04T09:55:27;11.30;99.90
11423;DHT22;5768;51.476;7.210;2024-02-04T10:00:33;11.20;99.90
11423;DHT22;5768;51.476;7.210;2024-02-04T10:05:35;11.30;99.90
11423;DHT22;5768;51.476;7.210;2024-02-04T10:10:38;11.30;99.90
11423;DHT22;5768;51.476;7.210;2024-02-04T10:15:42;11.50;99.90
11423;DHT22;5768;51.476;7.210;2024-02-04T10:20:45;11.50;99.90
11423;DHT22;5768;51.476;7.210;2024-02-04T10:25:57;11.50;99.90
11423;DHT22;5768;51.476;7.210;2024-02-04T10:31:02;11.60;99.90
11423;DHT22;5768;51.476;7.210;2024-02-04T10:36:05;11.90;99.90
11423;DHT22;5768;51.476;7.210;2024-02-04T10:41:11;11.80;99.90
11423;DHT22;5768;51.476;7.210;2024-02-04T10:46:19;11.60;99.90
11423;DHT22;5768;51.476;7.210;2024-02-04T10:51:25;11.60;99.90
11423;DHT22;5768;51.476;7.210;2024-02-04T10:56:30;11.30;99.90
11423;DHT22;5768;51.476;7.210;2024-02-04T11:01:38;11.30;99.90
11423;DHT22;5768;51.476;7.210;2024-02-04T11:06:42;11.70;99.90
11423;DHT22;5768;51.476;7.210;2024-02-04T11:11:46;12.00;99.90
11423;DHT22;5768;51.476;7.210;2024-02-04T11:17:04;12.50;91.10
11423;DHT22;5768;51.476;7.210;2024-02-04T11:22:27;12.60;84.60
11423;DHT22;5768;51.476;7.210;2024-02-04T11:27:40;12.60;84.80
11423;DHT22;5768;51.476;7.210;2024-02-04T11:32:45;12.10;87.70
11423;DHT22;5768;51.476;7.210;2024-02-04T11:37:48;11.80;99.90
11423;DHT22;5768;51.476;7.210;2024-02-04T11:42:51;11.70;99.90
11423;DHT22;5768;51.476;7.210;2024-02-04T11:48:00;11.70;99.90
11423;DHT22;5768;51.476;7.210;2024-02-04T11:53:05;12.10;99.90
11423;DHT22;5768;51.476;7.210;2024-02-04T11:58:09;12.30;99.90
11423;DHT22;5768;51.476;7.210;2024-02-04T12:03:14;11.90;99.90
11423;DHT22;5768;51.476;7.210;2024-02-04T12:08:17;11.30;99.90
11423;DHT22;5768;51.476;7.210;2024-02-04T12:13:19;11.30;99.90
11423;DHT22;5768;51.476;7.210;2024-02-04T12:18:23;11.30;99.90
11423;DHT22;5768;51.476;7.210;2024-02-04T12:23:26;11.20;99.90
11423;DHT22;5768;51.476;7.210;2024-02-04T12:28:29;11.40;99.90
11423;DHT22;5768;51.476;7.210;2024-02-04T12:33:33;11.30;99.90
11423;DHT22;5768;51.476;7.210;2024-02-04T12:38:37;11.30;99.90
11423;DHT22;5768;51.476;7.210;2024-02-04T12:43:40;11.20;99.90
11423;DHT22;5768;51.476;7.210;2024-02-04T12:48:44;11.30;99.90
11423;DHT22;5768;51.476;7.210;2024-02-04T12:53:47;11.40;99.90
11423;DHT22;5768;51.476;7.210;2024-02-04T12:58:49;11.40;99.90
11423;DHT22;5768;51.476;7.210;2024-02-04T13:03:56;11.40;99.90
11423;DHT22;5768;51.476;7.210;2024-02-04T13:08:59;11.40;99.90
11423;DHT22;5768;51.476;7.210;2024-02-04T13:14:01;11.60;99.90
11423;DHT22;5768;51.476;7.210;2024-02-04T13:19:05;11.50;99.90
11423;DHT22;5768;51.476;7.210;2024-02-04T13:24:08;11.30;99.90
11423;DHT22;5768;51.476;7.210;2024-02-04T13:29:10;11.20;99.90
11423;DHT22;5768;51.476;7.210;2024-02-04T13:34:13;11.40;1.40
11423;DHT22;5768;51.476;7.210;2024-02-04T13:39:16;11.30;99.90
11423;DHT22;5768;51.476;7.210;2024-02-04T13:44:19;11.30;99.90
11423;DHT22;5768;51.476;7.210;2024-02-04T13:49:23;11.30;99.90
11423;DHT22;5768;51.476;7.210;2024-02-04T13:54:25;11.30;99.90
11423;DHT22;5768;51.476;7.210;2024-02-04T13:59:27;11.50;99.90
11423;DHT22;5768;51.476;7.210;2024-02-04T14:04:31;11.20;99.90
11423;DHT22;5768;51.476;7.210;2024-02-04T14:09:34;11.30;99.90
11423;DHT22;5768;51.476;7.210;2024-02-04T14:14:37;11.20;99.90
11423;DHT22;5768;51.476;7.210;2024-02-04T14:19:41;11.20;99.90
11423;DHT22;5768;51.476;7.210;2024-02-04T14:24:46;11.20;99.90
11423;DHT22;5768;51.476;7.210;2024-02-04T14:29:48;11.10;99.90
11423;DHT22;5768;51.476;7.210;2024-02-04T14:34:52;11.30;99.90
11423;DHT22;5768;51.476;7.210;2024-02-04T14:39:55;11.30;99.90
11423;DHT22;5768;51.476;7.210;2024-02-04T14:44:58;11.20;99.90
11423;DHT22;5768;51.476;7.210;2024-02-04T14:50:03;11.30;99.90
11423;DHT22;5768;51.476;7.210;2024-02-04T14:55:07;11.00;99.90
11423;DHT22;5768;51.476;7.210;2024-02-04T15:00:11;11.00;99.90
11423;DHT22;5768;51.476;7.210;2024-02-04T15:05:16;11.10;99.90
11423;DHT22;5768;51.476;7.210;2024-02-04T15:10:22;11.20;99.90
11423;DHT22;5768;51.476;7.210;2024-02-04T15:15:25;11.20;99.90
11423;DHT22;5768;51.476;7.210;2024-02-04T15:20:31;11.10;99.90
11423;DHT22;5768;51.476;7.210;2024-02-04T15:25:34;11.10;99.90
11423;DHT22;5768;51.476;7.210;2024-02-04T15:30:38;11.20;99.90
11423;DHT22;5768;51.476;7.210;2024-02-04T15:35:43;11.40;99.90
11423;DHT22;5768;51.476;7.210;2024-02-04T15:40:46;11.40;1.40
11423;DHT22;5768;51.476;7.210;2024-02-04T15:45:48;11.60;1.40
11423;DHT22;5768;51.476;7.210;2024-02-04T15:50:53;11.20;1.40
11423;DHT22;5768;51.476;7.210;2024-02-04T15:55:56;11.30;1.40
11423;DHT22;5768;51.476;7.210;2024-02-04T16:01:00;11.30;1.40
11423;DHT22;5768;51.476;7.210;2024-02-04T16:06:11;11.10;1.40
11423;DHT22;5768;51.476;7.210;2024-02-04T16:11:16;11.10;1.40
11423;DHT22;5768;51.476;7.210;2024-02-04T16:16:22;11.10;1.40
11423;DHT22;5768;51.476;7.210;2024-02-04T16:21:36;11.10;1.40
11423;DHT22;5768;51.476;7.210;2024-02-04T16:26:38;11.10;1.40
11423;DHT22;5768;51.476;7.210;2024-02-04T16:31:41;11.20;1.40
11423;DHT22;5768;51.476;7.210;2024-02-04T16:36:45;11.10;1.40
11423;DHT22;5768;51.476;7.210;2024-02-04T16:41:48;11.10;1.40
11423;DHT22;5768;51.476;7.210;2024-02-04T16:46:50;11.00;1.40
11423;DHT22;5768;51.476;7.210;2024-02-04T16:51:54;11.00;1.40
11423;DHT22;5768;51.476;7.210;2024-02-04T16:56:58;10.90;1.40
11423;DHT22;5768;51.476;7.210;2024-02-04T17:02:03;10.90;99.90
11423;DHT22;5768;51.476;7.210;2024-02-04T17:07:08;11.10;99.90
11423;DHT22;5768;51.476;7.210;2024-02-04T17:12:12;11.00;99.90
11423;DHT22;5768;51.476;7.210;2024-02-04T17:17:16;11.10;99.90
11423;DHT22;5768;51.476;7.210;2024-02-04T17:22:21;11.00;99.90
11423;DHT22;5768;51.476;7.210;2024-02-04T17:27:24;11.10;99.90
11423;DHT22;5768;51.476;7.210;2024-02-04T17:32:27;11.10;1.40
11423;DHT22;5768;51.476;7.210;2024-02-04T17:37:34;11.10;1.40
11423;DHT22;5768;51.476;7.210;2024-02-04T17:42:37;11.00;99.90
11423;DHT22;5768;51.476;7.210;2024-02-04T17:47:40;11.00;1.40
11423;DHT22;5768;51.476;7.210;2024-02-04T17:52:45;11.00;99.90
11423;DHT22;5768;51.476;7.210;2024-02-04T17:57:47;11.10;99.90
11423;DHT22;5768;51.476;7.210;2024-02-04T18:02:50;11.30;99.90
11423;DHT22;5768;51.476;7.210;2024-02-04T18:07:53;11.00;99.90
11423;DHT22;5768;51.476;7.210;2024-02-04T18:12:56;11.10;99.90
11423;DHT22;5768;51.476;7.210;2024-02-04T18:17:58;10.90;99.90
11423;DHT22;5768;51.476;7.210;2024-02-04T18:23:02;10.70;99.90
11423;DHT22;5768;51.476;7.210;2024-02-04T18:28:05;10.70;99.90
11423;DHT22;5768;51.476;7.210;2024-02-04T18:33:07;10.70;99.90
11423;DHT22;5768;51.476;7.210;2024-02-04T18:38:14;10.80;99.90
11423;DHT22;5768;51.476;7.210;2024-02-04T18:43:16;10.70;99.90
11423;DHT22;5768;51.476;7.210;2024-02-04T18:48:19;10.70;99.90
11423;DHT22;5768;51.476;7.210;2024-02-04T18:53:22;10.80;1.40
11423;DHT22;5768;51.476;7.210;2024-02-04T18:58:26;10.60;1.40
11423;DHT22;5768;51.476;7.210;2024-02-04T19:03:30;10.50;1.40
11423;DHT22;5768;51.476;7.210;2024-02-04T19:08:33;10.50;99.90
11423;DHT22;5768;51.476;7.210;2024-02-04T19:13:36;10.50;99.90
11423;DHT22;5768;51.476;7.210;2024-02-04T19:18:38;10.50;1.40
11423;DHT22;5768;51.476;7.210;2024-02-04T19:23:42;10.60;1.40
11423;DHT22;5768;51.476;7.210;2024-02-04T19:28:45;10.50;1.40
11423;DHT22;5768;51.476;7.210;2024-02-04T19:33:47;10.50;1.40
11423;DHT22;5768;51.476;7.210;2024-02-04T19:38:50;10.50;1.40
11423;DHT22;5768;51.476;7.210;2024-02-04T19:43:53;10.40;1.40
11423;DHT22;5768;51.476;7.210;2024-02-04T19:48:55;10.40;1.40
11423;DHT22;5768;51.476;7.210;2024-02-04T19:53:59;10.40;1.40
11423;DHT22;5768;51.476;7.210;2024-02-04T19:59:02;10.40;1.40
11423;DHT22;5768;51.476;7.210;2024-02-04T20:04:04;10.40;1.40
11423;DHT22;5768;51.476;7.210;2024-02-04T20:09:08;10.40;1.40
11423;DHT22;5768;51.476;7.210;2024-02-04T20:14:10;10.40;1.40
11423;DHT22;5768;51.476;7.210;2024-02-04T20:19:12;10.40;1.40
11423;DHT22;5768;51.476;7.210;2024-02-04T20:24:16;10.40;1.40
11423;DHT22;5768;51.476;7.210;2024-02-04T20:29:18;10.40;1.40
11423;DHT22;5768;51.476;7.210;2024-02-04T20:34:21;10.40;1.40
11423;DHT22;5768;51.476;7.210;2024-02-04T20:39:25;10.50;1.40
11423;DHT22;5768;51.476;7.210;2024-02-04T20:44:28;10.50;1.40
11423;DHT22;5768;51.476;7.210;2024-02-04T20:49:30;10.60;1.40
11423;DHT22;5768;51.476;7.210;2024-02-04T20:54:34;10.60;1.40
11423;DHT22;5768;51.476;7.210;2024-02-04T20:59:36;10.50;1.40
11423;DHT22;5768;51.476;7.210;2024-02-04T21:04:39;10.50;1.40
11423;DHT22;5768;51.476;7.210;2024-02-04T21:09:42;10.60;1.40
11423;DHT22;5768;51.476;7.210;2024-02-04T21:14:46;10.60;1.40
11423;DHT22;5768;51.476;7.210;2024-02-04T21:19:48;10.60;1.40
11423;DHT22;5768;51.476;7.210;2024-02-04T21:24:52;10.60;1.40
11423;DHT22;5768;51.476;7.210;2024-02-04T21:29:55;10.80;1.40
11423;DHT22;5768;51.476;7.210;2024-02-04T21:34:57;10.80;1.40
11423;DHT22;5768;51.476;7.210;2024-02-04T21:40:01;10.70;1.40
11423;DHT22;5768;51.476;7.210;2024-02-04T21:45:04;10.70;1.40
11423;DHT22;5768;51.476;7.210;2024-02-04T21:50:10;10.80;1.40
11423;DHT22;5768;51.476;7.210;2024-02-04T21:55:20;10.80;1.40
11423;DHT22;5768;51.476;7.210;2024-02-04T22:00:23;10.80;1.40
11423;DHT22;5768;51.476;7.210;2024-02-04T22:05:25;10.90;1.40
11423;DHT22;5768;51.476;7.210;2024-02-04T22:10:32;11.00;1.40
11423;DHT22;5768;51.476;7.210;2024-02-04T22:15:35;11.00;1.40
11423;DHT22;5768;51.476;7.210;2024-02-04T22:20:37;10.90;1.40
11423;DHT22;5768;51.476;7.210;2024-02-04T22:25:42;11.00;1.40
11423;DHT22;5768;51.476;7.210;2024-02-04T22:30:44;11.00;1.40
11423;DHT22;5768;51.476;7.210;2024-02-04T22:35:47;11.00;1.40
11423;DHT22;5768;51.476;7.210;2024-02-04T22:40:51;11.10;1.40
11423;DHT22;5768;51.476;7.210;2024-02-04T22:45:53;11.10;1.40
11423;DHT22;5768;51.476;7.210;2024-02-04T22:50:55;11.10;1.40
11423;DHT22;5768;51.476;7.210;2024-02-04T22:56:00;11.20;1.40
11423;DHT22;5768;51.476;7.210;2024-02-04T23:01:03;11.20;1.40
11423;DHT22;5768;51.476;7.210;2024-02-04T23:06:06;11.30;1.40
11423;DHT22;5768;51.476;7.210;2024-02-04T23:11:10;11.30;1.40
11423;DHT22;5768;51.476;7.210;2024-02-04T23:16:12;11.30;1.40
11423;DHT22;5768;51.476;7.210;2024-02-04T23:21:15;11.30;1.40
11423;DHT22;5768;51.476;7.210;2024-02-04T23:26:19;11.30;1.40
11423;DHT22;5768;51.476;7.210;2024-02-04T23:31:21;11.40;1.40
11423;DHT22;5768;51.476;7.210;2024-02-04T23:36:24;11.40;1.40
11423;DHT22;5768;51.476;7.210;2024-02-04T23:41:27;11.40;1.40
11423;DHT22;5768;51.476;7.210;2024-02-04T23:46:29;11.50;1.40
11423;DHT22;5768;51.476;7.210;2024-02-04T23:51:32;11.50;99.90
11423;DHT22;5768;51.476;7.210;2024-02-04T23:56:36;11.50;99.90
